Time;durP1;ratioP1;P1;durP2;ratioP2;P2;SDS_P1;SDS_P2;PMS_P1;PMS_P2;Temp;Humidity;BMP_temperature;BMP_pressure;BME280_temperature;BME280_humidity;BME280_pressure;Samples;Min_cycle;Max_cycle;Signal;HPM_P1;HPM_P2
2021/04/22 00:01:56;;;;;;;23.38;12.73;;;10.60;99.90;;;;;;5035508;28;20036;-67
2021/04/22 00:04:22;;;;;;;23.38;13.85;;;10.60;99.90;;;;;;5035329;28;20375;-67
2021/04/22 00:06:50;;;;;;;22.48;12.63;;;10.40;99.90;;;;;;5017760;28;20025;-66
2021/04/22 00:09:17;;;;;;;23.85;12.98;;;10.40;99.90;;;;;;5035451;28;20112;-67
2021/04/22 00:11:43;;;;;;;24.67;13.95;;;10.40;99.90;;;;;;5035130;28;20065;-67
2021/04/22 00:14:09;;;;;;;21.75;12.77;;;10.30;99.90;;;;;;5035428;28;20033;-67
2021/04/22 00:16:36;;;;;;;25.45;13.38;;;10.30;99.90;;;;;;5035292;28;20064;-67
2021/04/22 00:19:03;;;;;;;22.30;13.60;;;10.30;99.90;;;;;;5035400;28;20457;-67
2021/04/22 00:21:29;;;;;;;20.23;12.80;;;10.30;99.90;;;;;;5016995;28;20141;-67
2021/04/22 00:23:55;;;;;;;23.83;14.07;;;10.30;99.90;;;;;;5035277;28;20116;-67
2021/04/22 00:26:21;;;;;;;24.83;13.80;;;10.20;99.90;;;;;;5034832;28;20038;-67
2021/04/22 00:28:47;;;;;;;32.22;14.68;;;10.20;99.90;;;;;;5035197;28;20060;-67
2021/04/22 00:31:12;;;;;;;24.75;14.30;;;10.20;99.90;;;;;;5034997;28;20084;-68
2021/04/22 00:33:38;;;;;;;27.13;14.05;;;10.20;99.90;;;;;;5035106;28;20033;-67
2021/04/22 00:36:05;;;;;;;26.65;14.45;;;10.20;99.90;;;;;;5034985;28;20038;-67
2021/04/22 00:38:31;;;;;;;25.95;14.55;;;10.20;99.90;;;;;;5034857;28;20101;-67
2021/04/22 00:40:56;;;;;;;22.50;14.02;;;10.20;99.90;;;;;;5035052;28;20049;-67
2021/04/22 00:43:23;;;;;;;26.80;15.10;;;10.20;99.90;;;;;;5034706;28;20379;-67
2021/04/22 00:45:50;;;;;;;29.33;15.25;;;10.10;99.90;;;;;;5034906;28;20033;-66
2021/04/22 00:48:21;;;;;;;22.73;14.85;;;10.10;99.90;;;;;;5034632;28;20040;-66
2021/04/22 00:50:48;;;;;;;29.23;15.20;;;10.10;99.90;;;;;;5017279;28;20033;-66
2021/04/22 00:53:14;;;;;;;27.58;13.95;;;10.10;99.90;;;;;;5034522;28;20042;-68
2021/04/22 00:55:40;;;;;;;29.92;14.68;;;10.00;99.90;;;;;;5034738;28;20087;-67
2021/04/22 00:58:07;;;;;;;31.73;14.13;;;10.00;99.90;;;;;;5034555;28;20040;-67
2021/04/22 01:00:42;;;;;;;29.42;14.85;;;10.00;99.90;;;;;;5034503;28;20037;-67
2021/04/22 01:03:09;;;;;;;30.25;16.40;;;10.00;99.90;;;;;;5034211;28;20108;-67
2021/04/22 01:05:44;;;;;;;26.73;14.98;;;10.00;99.90;;;;;;5034420;28;20029;-67
2021/04/22 01:08:11;;;;;;;26.45;15.32;;;9.90;99.90;;;;;;5016987;28;20037;-67
2021/04/22 01:10:36;;;;;;;26.52;15.30;;;9.90;99.90;;;;;;5034251;28;20378;-67
2021/04/22 01:13:03;;;;;;;29.60;15.77;;;9.80;99.90;;;;;;5034310;28;20040;-67
2021/04/22 01:15:30;;;;;;;29.40;15.65;;;9.80;99.90;;;;;;5033968;28;20544;-68
2021/04/22 01:17:57;;;;;;;26.98;14.02;;;9.80;99.90;;;;;;5016615;28;20112;-66
2021/04/22 01:20:28;;;;;;;27.35;14.20;;;9.80;99.90;;;;;;5033914;28;20045;-67
2021/04/22 01:22:55;;;;;;;;;;;9.80;99.90;;;;;;5017605;28;20026;-66
2021/04/22 01:25:33;;;;;;;26.45;14.00;;;9.80;99.90;;;;;;5034131;28;19919;-67
2021/04/22 01:28:01;;;;;;;28.30;13.75;;;9.80;99.90;;;;;;5016422;28;20386;-67
2021/04/22 01:30:36;;;;;;;25.63;14.63;;;9.70;99.90;;;;;;5016202;28;20025;-67
2021/04/22 01:33:04;;;;;;;29.77;14.25;;;9.70;99.90;;;;;;5033566;28;20071;-66
2021/04/22 01:35:39;;;;;;;26.05;14.13;;;9.70;99.90;;;;;;5033821;28;20029;-67
2021/04/22 01:38:07;;;;;;;27.10;14.13;;;9.70;99.90;;;;;;5016566;28;20029;-67
2021/04/22 01:40:35;;;;;;;25.20;14.20;;;9.70;99.90;;;;;;4999521;28;20060;-67
2021/04/22 01:43:02;;;;;;;22.38;13.90;;;9.70;99.90;;;;;;5033732;28;20041;-67
2021/04/22 01:45:28;;;;;;;27.13;14.55;;;9.50;99.90;;;;;;5033664;28;20029;-67
2021/04/22 01:47:54;;;;;;;31.38;14.48;;;9.40;99.90;;;;;;5033200;28;20108;-67
2021/04/22 01:50:25;;;;;;;30.63;14.52;;;9.40;99.90;;;;;;5033577;28;20064;-67
2021/04/22 01:52:53;;;;;;;24.77;13.48;;;9.30;99.90;;;;;;5033586;28;20041;-67
2021/04/22 01:55:49;;;;;;;25.65;13.88;;;9.30;99.90;;;;;;5033431;28;20443;-67
2021/04/22 01:58:23;;;;;;;25.58;13.52;;;9.30;99.90;;;;;;5021204;28;20386;-67
2021/04/22 02:00:57;;;;;;;25.15;13.50;;;9.30;99.90;;;;;;5016057;28;20029;-67
2021/04/22 02:03:24;;;;;;;21.52;12.80;;;9.20;99.90;;;;;;5033132;28;20026;-67
2021/04/22 02:05:50;;;;;;;26.00;12.38;;;9.30;99.90;;;;;;5033428;28;20025;-67
2021/04/22 02:08:17;;;;;;;29.30;13.98;;;9.20;99.90;;;;;;5033148;28;20059;-67
2021/04/22 02:10:44;;;;;;;29.80;12.32;;;9.20;99.90;;;;;;5033345;28;20493;-67
2021/04/22 02:13:13;;;;;;;27.20;12.23;;;9.10;99.90;;;;;;5032738;28;20041;-67
2021/04/22 02:15:39;;;;;;;22.85;11.55;;;9.20;99.90;;;;;;5033072;28;20037;-67
2021/04/22 02:18:05;;;;;;;26.45;12.20;;;9.10;99.90;;;;;;5033110;28;20489;-67
2021/04/22 02:20:32;;;;;;;22.23;12.35;;;9.00;99.90;;;;;;5032606;28;20045;-67
2021/04/22 02:22:58;;;;;;;20.85;11.48;;;9.00;99.90;;;;;;5032983;28;20040;-67
2021/04/22 02:25:27;;;;;;;27.58;12.45;;;9.00;99.90;;;;;;5032955;28;20122;-67
2021/04/22 02:27:54;;;;;;;21.80;11.63;;;9.00;99.90;;;;;;5032586;28;20195;-67
2021/04/22 02:30:23;;;;;;;22.15;10.82;;;8.90;99.90;;;;;;5032530;28;20034;-67
2021/04/22 02:32:50;;;;;;;21.88;11.45;;;9.00;99.90;;;;;;5032783;28;20033;-67
2021/04/22 02:35:22;;;;;;;19.80;9.93;;;9.00;99.90;;;;;;5015187;28;20037;-67
2021/04/22 02:37:48;;;;;;;20.98;9.55;;;8.90;99.90;;;;;;5032746;28;20361;-67
2021/04/22 02:40:18;;;;;;;16.30;8.85;;;8.90;99.90;;;;;;5032455;28;20541;-67
2021/04/22 02:42:44;;;;;;;21.52;9.18;;;8.80;99.90;;;;;;5032709;28;20022;-67
2021/04/22 02:45:18;;;;;;;18.65;7.85;;;8.90;99.90;;;;;;5032582;28;20043;-67
2021/04/22 02:47:44;;;;;;;16.23;7.85;;;8.90;99.90;;;;;;5032414;28;20124;-66
2021/04/22 02:50:15;;;;;;;19.88;8.48;;;8.80;99.90;;;;;;5032523;28;20041;-67
2021/04/22 02:52:41;;;;;;;16.33;6.88;;;8.90;99.90;;;;;;5032113;28;20034;-66
2021/04/22 02:55:08;;;;;;;17.85;7.10;;;8.90;99.90;;;;;;5032590;28;20037;-67
2021/04/22 02:57:34;;;;;;;15.77;7.32;;;8.80;99.90;;;;;;5014713;28;20087;-66
2021/04/22 03:00:00;;;;;;;14.20;6.15;;;8.70;99.90;;;;;;5032233;28;20033;-66
2021/04/22 03:02:26;;;;;;;16.90;6.82;;;8.70;99.90;;;;;;5014602;28;20033;-67
2021/04/22 03:04:52;;;;;;;20.70;6.88;;;8.70;99.90;;;;;;5032379;28;20117;-66
2021/04/22 03:07:18;;;;;;;17.50;7.45;;;8.70;99.90;;;;;;5032401;28;20042;-67
2021/04/22 03:09:43;;;;;;;14.95;6.25;;;8.70;99.90;;;;;;5031998;28;20042;-67
2021/04/22 03:12:09;;;;;;;18.02;6.40;;;8.70;99.90;;;;;;5032326;28;20025;-67
2021/04/22 03:14:36;;;;;;;16.15;6.18;;;8.60;99.90;;;;;;5032243;28;20034;-67
2021/04/22 03:17:02;;;;;;;14.25;6.57;;;8.60;99.90;;;;;;5047711;28;20029;-67
2021/04/22 03:19:28;;;;;;;16.73;6.05;;;8.60;99.90;;;;;;5014701;28;20042;-67
2021/04/22 03:21:54;;;;;;;20.38;7.40;;;8.50;99.90;;;;;;5032151;28;20041;-66
2021/04/22 03:24:20;;;;;;;20.88;6.88;;;8.50;99.90;;;;;;5014301;28;20041;-67
2021/04/22 03:26:46;;;;;;;20.73;6.93;;;8.50;99.90;;;;;;5035538;28;20112;-66
2021/04/22 03:29:11;;;;;;;19.52;7.55;;;8.40;99.90;;;;;;5036253;28;20188;-66
2021/04/22 03:31:37;;;;;;;16.20;6.72;;;8.40;99.90;;;;;;5018141;28;20038;-66
2021/04/22 03:34:03;;;;;;;13.13;6.13;;;8.30;99.90;;;;;;5018193;28;20037;-67
2021/04/22 03:36:29;;;;;;;14.60;6.00;;;8.20;99.90;;;;;;5036019;28;20546;-67
2021/04/22 03:38:55;;;;;;;15.70;6.07;;;8.20;99.90;;;;;;5036052;28;20167;-67
2021/04/22 03:41:22;;;;;;;13.27;5.47;;;8.20;99.90;;;;;;5036059;28;20029;-67
2021/04/22 03:43:49;;;;;;;20.30;5.60;;;8.10;99.90;;;;;;5035988;28;20083;-67
2021/04/22 03:46:14;;;;;;;14.48;4.50;;;8.00;99.90;;;;;;5035763;28;20039;-66
2021/04/22 03:48:40;;;;;;;13.35;4.78;;;8.00;99.90;;;;;;5017929;28;20112;-66
2021/04/22 03:51:06;;;;;;;15.25;4.63;;;7.90;99.90;;;;;;5035790;28;20025;-66
2021/04/22 03:53:32;;;;;;;12.93;5.75;;;8.00;99.90;;;;;;5017637;28;20036;-67
2021/04/22 03:55:57;;;;;;;15.98;4.88;;;7.90;99.90;;;;;;5035823;28;20037;-66
2021/04/22 03:58:23;;;;;;;11.10;4.80;;;7.90;99.90;;;;;;5014464;28;20077;-66
2021/04/22 04:00:49;;;;;;;18.50;4.68;;;7.80;99.90;;;;;;5015240;28;20026;-70
2021/04/22 04:03:15;;;;;;;10.15;4.35;;;7.80;99.90;;;;;;5015162;28;20042;-67
2021/04/22 04:05:40;;;;;;;15.02;4.97;;;7.80;99.90;;;;;;5014615;28;20026;-67
2021/04/22 04:08:06;;;;;;;20.73;5.55;;;7.70;99.90;;;;;;5015327;28;20040;-68
2021/04/22 04:10:32;;;;;;;17.48;4.78;;;7.60;99.90;;;;;;5015531;28;20040;-68
2021/04/22 04:12:58;;;;;;;15.82;4.72;;;7.70;99.90;;;;;;5015704;28;20044;-68
2021/04/22 04:15:24;;;;;;;10.88;4.35;;;7.70;99.90;;;;;;5015258;28;20026;-69
2021/04/22 04:17:50;;;;;;;12.23;4.30;;;7.60;99.90;;;;;;5014406;28;20128;-68
2021/04/22 04:20:16;;;;;;;9.35;3.50;;;7.60;99.90;;;;;;5015001;28;20503;-68
2021/04/22 04:22:42;;;;;;;13.70;3.50;;;7.50;99.90;;;;;;5014221;28;20057;-68
2021/04/22 04:25:10;;;;;;;12.98;3.75;;;7.50;99.90;;;;;;5013976;28;20078;-65
2021/04/22 04:27:37;;;;;;;10.77;3.15;;;7.40;99.90;;;;;;5014110;28;20033;-66
2021/04/22 04:30:06;;;;;;;15.93;3.17;;;7.30;99.90;;;;;;5014161;28;20602;-67
2021/04/22 04:32:31;;;;;;;16.85;4.15;;;7.30;99.90;;;;;;5013951;28;20536;-69
2021/04/22 04:34:57;;;;;;;14.05;3.60;;;7.30;99.90;;;;;;5014131;28;20117;-68
2021/04/22 04:37:23;;;;;;;20.90;3.45;;;7.20;99.90;;;;;;4996306;28;20037;-68
2021/04/22 04:39:50;;;;;;;13.15;2.95;;;7.20;99.90;;;;;;5014014;28;20038;-65
2021/04/22 04:42:17;;;;;;;15.75;3.65;;;7.10;99.90;;;;;;5013767;28;20036;-67
2021/04/22 04:44:42;;;;;;;9.10;2.95;;;7.10;99.90;;;;;;5013696;28;20463;-68
2021/04/22 04:47:08;;;;;;;6.75;2.97;;;7.10;99.90;;;;;;5012614;28;20030;-67
2021/04/22 04:49:34;;;;;;;10.82;3.00;;;7.00;99.90;;;;;;5013837;28;20530;-68
2021/04/22 04:52:00;;;;;;;8.25;3.55;;;7.00;99.90;;;;;;5013536;28;20040;-67
2021/04/22 04:54:26;;;;;;;11.88;3.22;;;7.00;99.90;;;;;;5013897;28;20080;-66
2021/04/22 04:56:51;;;;;;;11.52;3.17;;;7.00;99.90;;;;;;5013431;28;20030;-66
2021/04/22 04:59:17;;;;;;;12.15;3.22;;;7.00;99.90;;;;;;4996436;28;20033;-67
2021/04/22 05:01:43;;;;;;;8.73;2.90;;;7.00;99.90;;;;;;5013266;28;20092;-67
2021/04/22 05:04:09;;;;;;;11.70;2.72;;;7.00;99.90;;;;;;5013866;28;20037;-65
2021/04/22 05:06:35;;;;;;;8.07;2.67;;;7.00;99.90;;;;;;5013439;28;20076;-67
2021/04/22 05:09:00;;;;;;;5.78;2.78;;;7.00;99.90;;;;;;5012381;28;20038;-67
2021/04/22 05:11:26;;;;;;;15.05;2.65;;;7.00;99.90;;;;;;5013582;28;20030;-67
2021/04/22 05:13:52;;;;;;;10.00;2.47;;;7.00;99.90;;;;;;4995860;28;20538;-66
2021/04/22 05:16:18;;;;;;;14.15;2.55;;;7.00;99.90;;;;;;5013312;28;20356;-68
2021/04/22 05:18:44;;;;;;;12.60;3.15;;;7.00;99.90;;;;;;5013348;28;20033;-67
2021/04/22 05:21:10;;;;;;;11.30;2.92;;;7.00;99.90;;;;;;4975768;28;587661;-68
2021/04/22 05:23:36;;;;;;;7.32;2.15;;;7.00;99.90;;;;;;5014291;28;20042;-69
2021/04/22 05:26:02;;;;;;;17.23;2.33;;;7.00;99.90;;;;;;5014189;28;20512;-69
2021/04/22 05:28:28;;;;;;;10.52;2.92;;;7.00;99.90;;;;;;5011311;28;20065;-69
2021/04/22 05:30:53;;;;;;;10.45;3.13;;;6.90;99.90;;;;;;5013038;28;20045;-69
2021/04/22 05:33:19;;;;;;;10.20;2.60;;;7.00;99.90;;;;;;5013541;28;20372;-69
2021/04/22 05:35:45;;;;;;;10.10;2.47;;;7.00;99.90;;;;;;5014018;28;20022;-69
2021/04/22 05:38:12;;;;;;;16.40;3.72;;;7.00;99.90;;;;;;5014070;28;20087;-68
2021/04/22 05:40:38;;;;;;;8.57;2.53;;;7.00;99.90;;;;;;5013852;28;20030;-68
2021/04/22 05:43:08;;;;;;;15.68;2.50;;;7.00;99.90;;;;;;5013797;28;20490;-69
2021/04/22 05:45:38;;;;;;;11.52;3.22;;;7.10;99.90;;;;;;5013727;28;20034;-67
2021/04/22 05:48:05;;;;;;;18.48;3.35;;;7.10;99.90;;;;;;5012985;28;20042;-69
2021/04/22 05:50:32;;;;;;;12.43;2.72;;;7.00;99.90;;;;;;5013624;28;20036;-68
2021/04/22 05:52:58;;;;;;;11.30;3.13;;;7.00;99.90;;;;;;5013806;28;20041;-69
2021/04/22 05:55:24;;;;;;;12.73;2.97;;;7.10;99.90;;;;;;5013766;28;20046;-68
2021/04/22 05:57:54;;;;;;;15.27;3.03;;;7.10;99.90;;;;;;5013519;28;20030;-69
2021/04/22 06:00:20;;;;;;;10.60;2.70;;;7.00;99.90;;;;;;5013216;28;20109;-69
2021/04/22 06:02:46;;;;;;;28.15;3.78;;;7.00;99.90;;;;;;4995758;28;20041;-69
2021/04/22 06:05:12;;;;;;;12.65;2.15;;;6.90;99.90;;;;;;4979505;28;20029;-69
2021/04/22 06:07:38;;;;;;;11.20;2.58;;;7.00;99.90;;;;;;5012895;28;20453;-68
2021/04/22 06:10:06;;;;;;;14.30;2.90;;;7.10;99.90;;;;;;5013479;28;20113;-68
2021/04/22 06:12:32;;;;;;;12.43;2.03;;;7.10;99.90;;;;;;5013417;28;20379;-68
2021/04/22 06:14:58;;;;;;;14.95;2.35;;;7.10;99.90;;;;;;5013607;28;20026;-69
2021/04/22 06:17:24;;;;;;;8.85;1.52;;;6.90;99.90;;;;;;5012849;28;20125;-68
2021/04/22 06:19:50;;;;;;;12.90;2.80;;;7.00;99.90;;;;;;5012989;28;20104;-69
2021/04/22 06:22:16;;;;;;;11.80;2.20;;;7.00;99.90;;;;;;5013019;28;20033;-69
2021/04/22 06:24:42;;;;;;;18.92;3.20;;;7.10;99.90;;;;;;5013192;28;20033;-68
2021/04/22 06:27:07;;;;;;;24.40;3.15;;;7.10;99.90;;;;;;5013078;28;20080;-69
2021/04/22 06:29:33;;;;;;;14.95;3.17;;;7.10;99.90;;;;;;5013152;28;20041;-69
2021/04/22 06:31:59;;;;;;;15.98;2.50;;;7.10;99.90;;;;;;5012573;28;20026;-68
2021/04/22 06:34:25;;;;;;;17.25;3.00;;;7.10;99.90;;;;;;5013108;28;20040;-69
2021/04/22 06:36:51;;;;;;;13.65;2.50;;;7.10;99.90;;;;;;5012569;28;20034;-68
2021/04/22 06:39:17;;;;;;;15.13;2.35;;;7.20;99.90;;;;;;5012981;28;20057;-68
2021/04/22 06:41:43;;;;;;;14.07;2.80;;;7.10;99.90;;;;;;5012682;28;20036;-69
2021/04/22 06:44:09;;;;;;;6.85;1.80;;;7.20;99.90;;;;;;5012788;28;20056;-68
2021/04/22 06:46:35;;;;;;;17.08;2.30;;;7.20;99.80;;;;;;5012535;28;20462;-69
2021/04/22 06:49:02;;;;;;;10.55;2.17;;;7.20;99.90;;;;;;5012909;28;20044;-69
2021/04/22 06:51:28;;;;;;;13.30;2.50;;;7.40;99.10;;;;;;5012649;28;20026;-69
2021/04/22 06:53:54;;;;;;;11.00;1.98;;;7.40;98.90;;;;;;5012371;28;20063;-71
2021/04/22 06:56:20;;;;;;;5.78;1.60;;;7.40;98.30;;;;;;5012780;28;20041;-69
2021/04/22 06:58:45;;;;;;;16.60;2.58;;;7.50;98.60;;;;;;5012512;28;20382;-68
2021/04/22 07:01:11;;;;;;;19.10;4.53;;;7.50;98.60;;;;;;5012488;28;20490;-68
2021/04/22 07:03:37;;;;;;;15.48;2.00;;;7.50;98.60;;;;;;5012379;28;20425;-68
2021/04/22 07:06:03;;;;;;;7.68;2.17;;;7.60;98.60;;;;;;5012730;28;20038;-69
2021/04/22 07:08:29;;;;;;;13.35;1.90;;;7.60;98.70;;;;;;5012465;28;20036;-69
2021/04/22 07:10:55;;;;;;;10.13;3.30;;;7.70;97.60;;;;;;5012491;28;20030;-69
2021/04/22 07:13:21;;;;;;;15.27;2.33;;;7.60;97.50;;;;;;5012532;28;20041;-69
2021/04/22 07:15:47;;;;;;;9.13;1.90;;;7.60;98.00;;;;;;5012384;28;20045;-69
2021/04/22 07:18:12;;;;;;;9.98;2.22;;;7.60;96.90;;;;;;5012502;28;20061;-69
2021/04/22 07:20:39;;;;;;;13.45;3.10;;;7.60;97.60;;;;;;5012174;28;20049;-68
2021/04/22 07:23:05;;;;;;;12.10;2.38;;;7.80;97.10;;;;;;5011338;28;20061;-68
2021/04/22 07:25:34;;;;;;;12.07;2.45;;;7.80;95.60;;;;;;5012510;28;20030;-69
2021/04/22 07:28:07;;;;;;;11.32;1.98;;;7.70;94.60;;;;;;5012109;28;20475;-68
2021/04/22 07:30:33;;;;;;;8.98;2.47;;;7.70;95.30;;;;;;5012546;28;20053;-69
2021/04/22 07:32:59;;;;;;;18.10;2.92;;;7.60;96.40;;;;;;5012010;28;20490;-69
2021/04/22 07:35:25;;;;;;;8.88;2.10;;;7.60;97.10;;;;;;5012271;28;20030;-68
2021/04/22 07:37:51;;;;;;;13.95;2.30;;;7.60;96.60;;;;;;5012251;28;20352;-68
2021/04/22 07:40:23;;;;;;;11.18;2.13;;;7.60;97.00;;;;;;5012112;28;20092;-68
2021/04/22 07:42:50;;;;;;;11.15;2.58;;;7.70;96.10;;;;;;5012127;28;20091;-68
2021/04/22 07:45:21;;;;;;;18.40;2.70;;;7.70;96.70;;;;;;5012016;28;20379;-68
2021/04/22 07:47:47;;;;;;;11.23;2.60;;;7.70;96.10;;;;;;5011936;28;20041;-68
2021/04/22 07:50:14;;;;;;;9.65;2.42;;;7.80;95.40;;;;;;5012330;28;20030;-69
2021/04/22 07:52:43;;;;;;;13.60;2.40;;;8.00;95.40;;;;;;4994419;28;20125;-68
2021/04/22 07:55:14;;;;;;;14.52;2.47;;;7.90;95.50;;;;;;5012098;28;20030;-68
2021/04/22 07:57:41;;;;;;;8.70;1.85;;;8.00;95.50;;;;;;4994439;28;20033;-68
2021/04/22 08:00:14;;;;;;;14.05;2.20;;;8.10;95.40;;;;;;5010558;28;20053;-68
2021/04/22 08:02:41;;;;;;;9.73;2.92;;;8.10;95.70;;;;;;4993281;28;20113;-68
2021/04/22 08:05:08;;;;;;;6.47;1.65;;;8.20;95.70;;;;;;5011411;28;20153;-67
2021/04/22 08:07:35;;;;;;;12.80;2.50;;;8.40;95.20;;;;;;5011792;28;20626;-68
2021/04/22 08:10:05;;;;;;;140.45;59.40;;;8.50;94.10;;;;;;5011834;28;20068;-68
2021/04/22 08:12:31;;;;;;;21.30;3.35;;;8.50;94.10;;;;;;5014606;28;20546;-68
2021/04/22 08:14:59;;;;;;;16.08;2.83;;;8.50;94.80;;;;;;5015383;28;20121;-68
2021/04/22 08:17:25;;;;;;;10.55;2.40;;;8.60;95.30;;;;;;5015228;28;20034;-68
2021/04/22 08:19:52;;;;;;;10.40;2.08;;;8.60;94.20;;;;;;5015124;28;20069;-69
2021/04/22 08:22:17;;;;;;;13.05;2.38;;;8.70;94.80;;;;;;5015565;28;20026;-69
2021/04/22 08:24:43;;;;;;;16.10;3.60;;;8.80;93.60;;;;;;5015261;28;20034;-69
2021/04/22 08:27:09;;;;;;;16.85;3.22;;;9.00;95.20;;;;;;5015401;28;20034;-68
2021/04/22 08:29:35;;;;;;;17.95;3.42;;;9.00;93.30;;;;;;5015321;28;20084;-68
2021/04/22 08:32:01;;;;;;;18.02;3.45;;;9.10;92.60;;;;;;4997374;28;20113;-68
2021/04/22 08:34:27;;;;;;;17.20;2.83;;;9.10;91.50;;;;;;5015194;28;20095;-68
2021/04/22 08:36:55;;;;;;;16.38;3.08;;;9.20;91.90;;;;;;5015041;28;20475;-68
2021/04/22 08:39:21;;;;;;;14.50;2.60;;;9.30;91.90;;;;;;5015193;28;20031;-69
2021/04/22 08:41:47;;;;;;;13.38;2.95;;;9.20;91.90;;;;;;4997247;28;20042;-68
2021/04/22 08:44:13;;;;;;;9.02;2.40;;;9.40;91.20;;;;;;5015007;28;20025;-68
2021/04/22 08:46:39;;;;;;;16.63;2.65;;;9.60;90.20;;;;;;5014967;28;20121;-68
2021/04/22 08:49:06;;;;;;;11.25;1.98;;;9.70;89.70;;;;;;5014702;28;20034;-67
2021/04/22 08:51:32;;;;;;;10.02;2.60;;;9.90;88.80;;;;;;5014918;28;20026;-68
2021/04/22 08:53:59;;;;;;;13.07;2.40;;;9.90;88.10;;;;;;5014744;28;20112;-68
2021/04/22 08:56:26;;;;;;;13.98;2.83;;;9.80;85.70;;;;;;4997314;28;20108;-67
2021/04/22 08:58:52;;;;;;;8.80;3.28;;;9.80;89.40;;;;;;5014599;28;20125;-68
2021/04/22 09:01:19;;;;;;;14.85;2.80;;;10.00;88.40;;;;;;5014599;28;20037;-68
2021/04/22 09:03:48;;;;;;;16.38;2.83;;;10.30;88.30;;;;;;5014189;28;20061;-67
2021/04/22 09:06:14;;;;;;;14.35;2.45;;;10.40;86.80;;;;;;5014621;28;20030;-69
2021/04/22 09:08:51;;;;;;;11.80;2.15;;;10.40;87.90;;;;;;5014412;28;20056;-68
2021/04/22 09:11:26;;;;;;;13.05;2.78;;;10.70;88.30;;;;;;4997098;28;20030;-68
2021/04/22 09:13:54;;;;;;;11.48;2.50;;;10.80;83.70;;;;;;5014269;28;20104;-68
2021/04/22 09:16:26;;;;;;;20.25;2.97;;;10.90;79.20;;;;;;5014241;28;20113;-68
2021/04/22 09:18:56;;;;;;;10.35;3.55;;;11.10;78.70;;;;;;5014156;28;20030;-67
2021/04/22 09:21:33;;;;;;;10.80;3.10;;;10.90;79.90;;;;;;5013996;28;20126;-68
2021/04/22 09:24:08;;;;;;;11.90;2.83;;;10.80;81.10;;;;;;5012528;28;20030;-68
2021/04/22 09:26:38;;;;;;;13.93;2.30;;;11.00;82.60;;;;;;5014396;28;20057;-68
2021/04/22 09:29:06;;;;;;;13.63;2.47;;;11.30;81.50;;;;;;4996411;28;20426;-68
2021/04/22 09:31:32;;;;;;;12.20;1.98;;;11.30;76.40;;;;;;5013047;28;20030;-68
2021/04/22 09:34:06;;;;;;;8.52;2.47;;;11.60;75.00;;;;;;4996364;28;20121;-68
2021/04/22 09:36:51;;;;;;;14.50;3.63;;;11.70;77.20;;;;;;5014146;28;20033;-69
2021/04/22 09:39:24;;;;;;;15.88;2.65;;;11.40;76.20;;;;;;5014153;28;20030;-68
2021/04/22 09:41:54;;;;;;;9.98;2.72;;;11.30;76.70;;;;;;4997137;28;20033;-69
2021/04/22 09:44:20;;;;;;;12.35;2.78;;;11.80;72.20;;;;;;5013817;28;20033;-68
2021/04/22 09:46:48;;;;;;;12.25;2.28;;;11.90;70.50;;;;;;4996085;28;20030;-68
2021/04/22 09:49:19;;;;;;;7.65;2.10;;;12.00;69.30;;;;;;5013667;28;20449;-69
2021/04/22 09:51:49;;;;;;;10.40;2.67;;;12.30;68.60;;;;;;5013780;28;20061;-68
2021/04/22 09:54:19;;;;;;;9.40;2.45;;;12.30;67.60;;;;;;5013834;28;20069;-68
2021/04/22 09:56:55;;;;;;;12.68;2.67;;;12.30;66.90;;;;;;5013133;28;20040;-68
2021/04/22 09:59:27;;;;;;;7.47;2.60;;;12.40;66.00;;;;;;4996408;28;20037;-67
2021/04/22 10:02:07;;;;;;;14.52;2.85;;;12.60;64.00;;;;;;4996168;28;20034;-68
2021/04/22 10:04:39;;;;;;;9.50;2.33;;;12.60;64.30;;;;;;5013622;28;20122;-69
2021/04/22 10:07:22;;;;;;;9.15;2.25;;;12.40;60.80;;;;;;5013407;28;20033;-70
2021/04/22 10:09:52;;;;;;;15.70;2.35;;;12.40;58.50;;;;;;5013026;28;20552;-70
2021/04/22 10:12:27;;;;;;;15.85;3.47;;;12.50;60.90;;;;;;5013465;28;20026;-70
2021/04/22 10:14:55;;;;;;;9.00;2.28;;;12.40;60.60;;;;;;5013211;28;20111;-70
2021/04/22 10:17:24;;;;;;;9.48;2.65;;;12.50;60.10;;;;;;5013191;28;20412;-70
2021/04/22 10:20:10;;;;;;;8.43;2.20;;;12.60;61.50;;;;;;5012842;28;20062;-70
2021/04/22 10:22:45;;;;;;;13.43;2.60;;;12.80;61.00;;;;;;5013390;28;20119;-70
2021/04/22 10:25:17;;;;;;;7.72;1.80;;;13.00;60.70;;;;;;5023808;28;20387;-71
2021/04/22 10:27:43;;;;;;;10.88;1.95;;;13.10;58.50;;;;;;5032952;28;20037;-70
2021/04/22 10:30:27;;;;;;;11.70;2.35;;;13.10;58.10;;;;;;5032624;28;20038;-65
2021/04/22 10:32:53;;;;;;;9.73;2.42;;;13.30;57.70;;;;;;5016282;28;20080;-68
2021/04/22 10:35:23;;;;;;;9.15;2.10;;;13.40;56.00;;;;;;5012659;28;20034;-69
2021/04/22 10:37:53;;;;;;;8.98;2.20;;;13.20;56.30;;;;;;5013157;28;20030;-69
2021/04/22 10:40:23;;;;;;;15.68;2.92;;;13.30;56.70;;;;;;5012820;28;20038;-69
2021/04/22 10:42:50;;;;;;;9.90;2.00;;;13.30;56.10;;;;;;5012810;28;20040;-69
2021/04/22 10:45:18;;;;;;;7.45;2.10;;;13.50;55.00;;;;;;4995592;28;20040;-69
2021/04/22 10:47:45;;;;;;;10.70;2.78;;;13.70;53.90;;;;;;5012624;28;20041;-69
2021/04/22 10:50:18;;;;;;;7.95;2.08;;;13.70;54.70;;;;;;5012677;28;20033;-68
2021/04/22 10:52:50;;;;;;;13.63;2.50;;;13.80;55.20;;;;;;5013010;28;20108;-68
2021/04/22 10:55:29;;;;;;;11.65;2.08;;;14.20;54.70;;;;;;5011023;28;20497;-68
2021/04/22 10:57:59;;;;;;;6.60;2.08;;;14.10;54.50;;;;;;5029745;28;20386;-68
2021/04/22 11:00:29;;;;;;;10.25;2.13;;;14.00;55.10;;;;;;5032342;28;20112;-69
2021/04/22 11:02:58;;;;;;;8.70;1.87;;;14.30;54.30;;;;;;5032147;28;20033;-69
2021/04/22 11:05:33;;;;;;;11.98;3.30;;;14.40;53.20;;;;;;5032418;28;20047;-70
2021/04/22 11:08:07;;;;;;;9.35;2.45;;;14.80;52.60;;;;;;5032245;28;20096;-73
2021/04/22 11:10:46;;;;;;;8.10;2.15;;;14.70;52.40;;;;;;5015001;28;20026;-66
2021/04/22 11:13:18;;;;;;;14.50;2.58;;;14.50;52.00;;;;;;5032493;28;20315;-74
2021/04/22 11:15:53;;;;;;;7.90;2.65;;;15.00;51.40;;;;;;5032302;28;20577;-75
2021/04/22 11:18:19;;;;;;;7.47;2.10;;;15.10;51.50;;;;;;5032206;28;20048;-74
2021/04/22 11:20:46;;;;;;;7.35;1.88;;;15.20;50.00;;;;;;5031654;28;20385;-74
2021/04/22 11:23:13;;;;;;;9.00;2.15;;;15.20;51.00;;;;;;5031977;28;20029;-74
2021/04/22 11:25:54;;;;;;;15.15;2.42;;;15.30;51.60;;;;;;5032460;28;20026;-75
2021/04/22 11:28:33;;;;;;;;;;;15.30;52.40;;;;;;5032634;28;20065;-74
2021/04/22 11:31:18;;;;;;;10.32;2.17;;;14.90;52.40;;;;;;5032801;28;19913;-73
2021/04/22 11:33:45;;;;;;;9.63;2.13;;;14.90;51.30;;;;;;5051911;28;20033;-73
2021/04/22 11:36:19;;;;;;;12.23;2.22;;;14.60;50.50;;;;;;5051856;28;20501;-74
2021/04/22 11:38:54;;;;;;;7.18;1.95;;;14.70;50.40;;;;;;5052047;28;20089;-74
2021/04/22 11:41:23;;;;;;;10.88;2.60;;;14.70;50.60;;;;;;5051896;28;20029;-73
2021/04/22 11:44:05;;;;;;;11.70;2.40;;;14.50;50.80;;;;;;5051721;28;20033;-74
2021/04/22 11:46:46;;;;;;;17.73;2.80;;;14.40;50.90;;;;;;5051407;28;20032;-73
2021/04/22 11:49:45;;;;;;;;;;;14.60;51.70;;;;;;5055972;28;20041;-73
2021/04/22 11:52:21;;;;;;;11.40;3.03;;;15.10;51.10;;;;;;4994436;28;19965;-73
2021/04/22 11:54:47;;;;;;;10.68;2.53;;;15.60;51.20;;;;;;5055911;28;20083;-73
2021/04/22 11:57:15;;;;;;;10.27;2.30;;;15.20;49.90;;;;;;5055480;28;20029;-73
2021/04/22 11:59:42;;;;;;;8.05;1.90;;;15.80;49.80;;;;;;5055628;28;20486;-52
2021/04/22 12:02:14;;;;;;;7.30;2.67;;;15.90;51.20;;;;;;5044696;28;20072;-54
2021/04/22 12:04:48;;;;;;;10.60;2.05;;;16.40;50.80;;;;;;5036319;28;20025;-55
2021/04/22 12:07:22;;;;;;;6.97;1.77;;;16.80;52.20;;;;;;5015390;28;20034;-57
2021/04/22 12:09:54;;;;;;;8.93;2.35;;;17.20;54.20;;;;;;5015807;28;20026;-74
2021/04/22 12:12:30;;;;;;;8.55;2.65;;;17.60;48.50;;;;;;5015162;28;20433;-73
2021/04/22 12:14:59;;;;;;;8.73;2.17;;;17.00;49.20;;;;;;5014628;28;20029;-74
2021/04/22 12:17:32;;;;;;;9.07;2.40;;;16.70;48.70;;;;;;5015082;28;20374;-73
2021/04/22 12:20:07;;;;;;;9.40;2.13;;;15.80;50.80;;;;;;5014895;28;20069;-74
2021/04/22 12:22:39;;;;;;;11.45;2.10;;;16.10;50.90;;;;;;5014313;28;20478;-74
2021/04/22 12:25:12;;;;;;;13.38;2.40;;;16.60;49.70;;;;;;5015386;28;20034;-72
2021/04/22 12:27:44;;;;;;;9.93;2.45;;;17.00;48.50;;;;;;5014946;28;20030;-72
2021/04/22 12:30:22;;;;;;;12.95;2.92;;;17.10;48.60;;;;;;4997506;28;20041;-74
2021/04/22 12:33:19;;;;;;;13.93;2.58;;;17.20;48.90;;;;;;5046840;28;20048;-74
2021/04/22 12:35:58;;;;;;;11.52;2.53;;;17.00;48.80;;;;;;5053531;28;20033;-74
2021/04/22 12:38:31;;;;;;;7.65;2.67;;;17.10;48.80;;;;;;5055085;28;20393;-73
2021/04/22 12:41:08;;;;;;;9.50;3.28;;;17.30;48.10;;;;;;5054767;28;20168;-72
2021/04/22 12:43:37;;;;;;;6.15;2.22;;;17.30;48.70;;;;;;5041994;28;20374;-72
2021/04/22 12:46:18;;;;;;;11.40;3.10;;;17.20;48.40;;;;;;5034236;28;20552;-74
2021/04/22 12:48:56;;;;;;;8.35;2.60;;;17.30;49.00;;;;;;5017491;28;20038;-73
2021/04/22 12:51:38;;;;;;;7.28;2.90;;;17.60;47.10;;;;;;5034250;28;20029;-74